Sacramento / Mc Clellan, CA

2:28 AM PST on January 16, 2018 (GMT -0800)
McClellan

Weather History for KMCC - May, 2013

Change the Weather History Date:

Sunday, May 19, 2013

  Actual Average (KMHR) Record (KMHR)
Temperature  
Mean Temperature 70 °F -  
Max Temperature 84 °F 79 °F 98 °F (1997)
Min Temperature 57 °F 49 °F 44 °F (2002)
Cooling Degree Days 6    
Growing Degree Days 20 (Base 50)    
Moisture  
Dew Point 42 °F    
Average Humidity 39    
Maximum Humidity 77    
Minimum Humidity 16    
Precipitation  
Precipitation 0.00 in - - ()
Sea Level Pressure  
Sea Level Pressure 30.04 in    
Wind  
Wind Speed 9 mph (NW)    
Max Wind Speed 20 mph    
Max Gust Speed 29 mph    
Visibility 10 miles    
Events      
Averages and records for this station are not official NWS values.
T = Trace of Precipitation, MM = Missing Value Source: NWS Daily Summary

Daily Weather History Graph

Daily Weather History Graph

Search for Another Location

Airport or City:

Trip Planner

Search our weather history database for the weather conditions in past years. The results will help you decide how hot, cold, wet, or windy it might be!

Date:

Astronomy

May. 19, 2013 Rise Set
Actual Time 5:50 AM PDT 8:14 PM PDT
Civil Twilight 5:19 AM PDT 8:44 PM PDT
Nautical Twilight 4:42 AM PDT 9:22 PM PDT
Astronomical Twilight 4:01 AM PDT 10:03 PM PDT
Moon 2:27 PM PDT (5/19) 2:12 AM PDT (5/19)
Length of Visible Light 15h 25m
Length of Day
14h 24m
Waxing Gibbous, 66% of the Moon is Illuminated
May 19
Waxing Gibbous
May 24
Full
May 31
Last Quarter
Jun 8
New
Jun 16
First Quarter

Hourly Weather History & Observations

Time (PDT) Temp. Dew Point Humidity Pressure Visibility Wind Dir Wind Speed Gust Speed Precip Events Conditions
12:05 AM 64.4 °F 50.0 °F 59% 30.07 in 10.0 mi East 5.8 mph - N/A   Clear
12:25 AM 64.4 °F 50.0 °F 59% 30.08 in 10.0 mi ESE 5.8 mph - N/A   Clear
12:45 AM 64.4 °F 50.0 °F 59% 30.08 in 10.0 mi Calm Calm - N/A   Clear
1:05 AM 60.8 °F 50.0 °F 68% 30.08 in 10.0 mi ENE 3.5 mph - N/A   Clear
1:25 AM 62.6 °F 50.0 °F 63% 30.08 in 10.0 mi Calm Calm - N/A   Clear
1:45 AM 60.8 °F 50.0 °F 68% 30.08 in 10.0 mi NW 3.5 mph - N/A   Clear
2:05 AM 59.0 °F 50.0 °F 72% 30.08 in 10.0 mi Calm Calm - N/A   Clear
2:25 AM 59.0 °F 50.0 °F 72% 30.08 in 10.0 mi Calm Calm - N/A   Clear
2:45 AM 57.2 °F 50.0 °F 77% 30.08 in 10.0 mi WNW 4.6 mph - N/A   Clear
3:05 AM 59.0 °F 48.2 °F 67% 30.08 in 10.0 mi NNW 6.9 mph - N/A   Clear
3:25 AM 59.0 °F 46.4 °F 63% 30.08 in 10.0 mi NW 6.9 mph - N/A   Clear
3:45 AM 59.0 °F 46.4 °F 63% 30.08 in 10.0 mi NNW 8.1 mph - N/A   Clear
4:05 AM 59.0 °F 44.6 °F 59% 30.08 in 10.0 mi NNW 9.2 mph - N/A   Clear
4:25 AM 59.0 °F 44.6 °F 59% 30.08 in 10.0 mi NNW 9.2 mph - N/A   Clear
4:45 AM 59.0 °F 44.6 °F 59% 30.09 in 10.0 mi NNW 8.1 mph - N/A   Clear
5:05 AM 59.0 °F 41.0 °F 51% 30.09 in 10.0 mi NNW 8.1 mph - N/A   Clear
5:25 AM 57.2 °F 41.0 °F 55% 30.09 in 10.0 mi NNW 5.8 mph - N/A   Clear
5:45 AM 57.2 °F 41.0 °F 55% 30.09 in 10.0 mi NNW 8.1 mph - N/A   Clear
6:05 AM 57.2 °F 41.0 °F 55% 30.10 in 10.0 mi NNW 8.1 mph - N/A   Clear
6:25 AM 59.0 °F 41.0 °F 51% 30.10 in 10.0 mi NNW 9.2 mph - N/A   Clear
6:45 AM 59.0 °F 42.8 °F 55% 30.11 in 10.0 mi NNW 10.4 mph - N/A   Clear
7:05 AM 60.8 °F 44.6 °F 55% 30.11 in 10.0 mi NNW 12.7 mph - N/A   Clear
7:25 AM 62.6 °F 44.6 °F 52% 30.11 in 10.0 mi NNW 11.5 mph 16.1 mph N/A   Clear
7:45 AM 64.4 °F 42.8 °F 45% 30.11 in 10.0 mi NNW 13.8 mph 20.7 mph N/A   Clear
8:05 AM 64.4 °F 41.0 °F 42% 30.11 in 10.0 mi NNW 16.1 mph 20.7 mph N/A   Clear
8:25 AM 66.2 °F 41.0 °F 40% 30.11 in 9.0 mi NNW 17.3 mph - N/A   Clear
8:45 AM 68.0 °F 41.0 °F 37% 30.11 in 9.0 mi NW 17.3 mph - N/A   Clear
9:05 AM 68.0 °F 41.0 °F 37% 30.11 in 10.0 mi NNW 17.3 mph - N/A   Clear
9:25 AM 69.8 °F 41.0 °F 35% 30.11 in 10.0 mi NNW 17.3 mph 24.2 mph N/A   Clear
9:45 AM 71.6 °F 41.0 °F 33% 30.11 in 10.0 mi NW 16.1 mph 21.9 mph N/A   Clear
10:05 AM 73.4 °F 41.0 °F 31% 30.10 in 10.0 mi NNW 15.0 mph 20.7 mph N/A   Clear
10:25 AM 73.4 °F 41.0 °F 31% 30.10 in 9.0 mi NW 17.3 mph 20.7 mph N/A   Clear
10:45 AM 73.4 °F 41.0 °F 31% 30.10 in 10.0 mi NW 16.1 mph 24.2 mph N/A   Clear
11:05 AM 75.2 °F 42.8 °F 31% 30.09 in 9.0 mi WNW 16.1 mph 24.2 mph N/A   Clear
11:25 AM 75.2 °F 42.8 °F 31% 30.09 in 10.0 mi NW 19.6 mph 23.0 mph N/A   Clear
11:45 AM 77.0 °F 42.8 °F 29% 30.08 in 9.0 mi NW 16.1 mph 26.5 mph N/A   Clear
12:05 PM 77.0 °F 41.0 °F 28% 30.08 in 9.0 mi WNW 18.4 mph 25.3 mph N/A   Clear
12:25 PM 78.8 °F 41.0 °F 26% 30.06 in 9.0 mi NW 19.6 mph 25.3 mph N/A   Clear
12:45 PM 78.8 °F 41.0 °F 26% 30.06 in 10.0 mi WNW 19.6 mph 25.3 mph N/A   Clear
1:05 PM 80.6 °F 41.0 °F 24% 30.05 in 10.0 mi WNW 18.4 mph 26.5 mph N/A   Clear
1:25 PM 80.6 °F 37.4 °F 21% 30.04 in 9.0 mi WNW 18.4 mph 25.3 mph N/A   Clear
1:45 PM 82.4 °F 37.4 °F 20% 30.04 in 9.0 mi NW 18.4 mph 23.0 mph N/A   Clear
2:05 PM 82.4 °F 37.4 °F 20% 30.03 in 10.0 mi NW 18.4 mph 25.3 mph N/A   Clear
2:25 PM 82.4 °F 37.4 °F 20% 30.02 in 10.0 mi WNW 18.4 mph 25.3 mph N/A   Clear
2:45 PM 82.4 °F 37.4 °F 20% 30.02 in 10.0 mi NW 19.6 mph 28.8 mph N/A   Clear
3:05 PM 82.4 °F 35.6 °F 19% 30.02 in 10.0 mi NW 19.6 mph 24.2 mph N/A   Clear
3:25 PM 82.4 °F 35.6 °F 19% 30.01 in 10.0 mi NNW 15.0 mph 23.0 mph N/A   Clear
3:45 PM 82.4 °F 35.6 °F 19% 30.00 in 10.0 mi NW 16.1 mph 23.0 mph N/A   Clear
4:05 PM 84.2 °F 35.6 °F 18% 29.99 in 10.0 mi WNW 19.6 mph 24.2 mph N/A   Clear
4:25 PM 84.2 °F 35.6 °F 18% 29.99 in 10.0 mi NW 16.1 mph 24.2 mph N/A   Clear
4:45 PM 84.2 °F 35.6 °F 18% 29.98 in 10.0 mi WNW 16.1 mph 24.2 mph N/A   Clear
5:05 PM 84.2 °F 35.6 °F 18% 29.98 in 10.0 mi NW 18.4 mph 25.3 mph N/A   Clear
5:25 PM 84.2 °F 33.8 °F 16% 29.97 in 10.0 mi NW 13.8 mph 21.9 mph N/A   Clear
5:45 PM 84.2 °F 37.4 °F 19% 29.97 in 10.0 mi NW 16.1 mph 19.6 mph N/A   Clear
6:05 PM 84.2 °F 37.4 °F 19% 29.96 in 9.0 mi NW 15.0 mph 19.6 mph N/A   Clear
6:25 PM 82.4 °F 35.6 °F 19% 29.96 in 10.0 mi NNW 9.2 mph - N/A   Clear
6:45 PM 82.4 °F 35.6 °F 19% 29.95 in 10.0 mi NW 13.8 mph 19.6 mph N/A   Clear
7:05 PM 82.4 °F 35.6 °F 19% 29.95 in 10.0 mi NNW 9.2 mph - N/A   Clear
7:25 PM 80.6 °F 37.4 °F 21% 29.96 in 10.0 mi NW 10.4 mph - N/A   Clear
7:45 PM 78.8 °F 37.4 °F 23% 29.96 in 10.0 mi NW 9.2 mph - N/A   Clear
8:05 PM 77.0 °F 39.2 °F 26% 29.96 in 10.0 mi WNW 8.1 mph - N/A   Clear
8:25 PM 75.2 °F 39.2 °F 27% 29.96 in 10.0 mi WNW 4.6 mph - N/A   Clear
8:45 PM 75.2 °F 41.0 °F 29% 29.96 in 10.0 mi WNW 8.1 mph - N/A   Clear
9:05 PM 75.2 °F 44.6 °F 34% 29.96 in 10.0 mi WNW 8.1 mph - N/A   Clear
9:25 PM 73.4 °F 44.6 °F 36% 29.96 in 10.0 mi WNW 5.8 mph - N/A   Clear
9:45 PM 71.6 °F 44.6 °F 38% 29.97 in 10.0 mi NW 5.8 mph - N/A   Clear
10:05 PM 69.8 °F 44.6 °F 40% 29.97 in 10.0 mi WNW 4.6 mph - N/A   Clear
10:25 PM 69.8 °F 46.4 °F 43% 29.97 in 10.0 mi WNW 5.8 mph - N/A   Clear
10:45 PM 68.0 °F 46.4 °F 46% 29.97 in 10.0 mi NW 8.1 mph - N/A   Clear
11:05 PM 66.2 °F 44.6 °F 46% 29.97 in 10.0 mi NNW 6.9 mph - N/A   Clear
11:25 PM 66.2 °F 44.6 °F 46% 29.97 in 10.0 mi NNW 5.8 mph - N/A   Clear
11:45 PM 64.4 °F 44.6 °F 49% 29.96 in 10.0 mi NNW 6.9 mph - N/A   Clear